KACT Airport (Waco Rgnl) Information

FAA: ACT - ICAO: KACT

KACT Airport Location

State Texas
County Mc Lennan
City Waco
KACT Airport is 5 miles northwest of Waco, TX.
Latitude 31-36-43.9000N
Longitude 097-13-49.1000W
Elevation 516ft

KACT Airport METARs

METAR KACT 060751Z AUTO 18011KT 10SM CLR 29/22 A2993 RMK AO2 SLP127 T02890217
Altimeter 29.93"
Temperature 28.9°C (84.0°F)
Wind 180° at 11KT
Clouds Skies are clear.
Visibility 10.0mi
Time observed: 2022-07-06T07:51:00Z

KACT Airport Details

Status Operational
Activation July 1943
Ownership Public
Usage Public
Chart SAN ANTONIO
ATC on-site Yes
Beacon schedule sunset-sunrise
Beacon color clear green

KACT Airport Contacts

Owner CITY OF WACO
Owner address PO BOX 2570, WACO, TX 76702-2570
Owner phone 254-750-5640
Manager CELIA RODGERS
Manager address BOX 641, VALLEY MILLS, TX 76689
Manager phone (254) 932-6146

KACT Airport (Waco Rgnl) Radio Frequencies

KACT (Airport) Radio Frequencies

UNICOM 122.95
Common traffic advisory frequency (CTAF) 119.3